sensor_id;sensor_type;location;lat;lon;timestamp;temperature;humidity
36716;DHT22;22699;51.034;3.730;2023-06-26T00:02:21;23.40;71.90
36716;DHT22;22699;51.034;3.730;2023-06-26T00:04:48;23.40;71.90
36716;DHT22;22699;51.034;3.730;2023-06-26T00:07:14;23.20;72.10
36716;DHT22;22699;51.034;3.730;2023-06-26T00:09:40;23.20;72.20
36716;DHT22;22699;51.034;3.730;2023-06-26T00:12:06;23.20;72.30
36716;DHT22;22699;51.034;3.730;2023-06-26T00:14:32;23.20;72.50
36716;DHT22;22699;51.034;3.730;2023-06-26T00:16:57;23.20;73.00
36716;DHT22;22699;51.034;3.730;2023-06-26T00:19:23;23.00;73.20
36716;DHT22;22699;51.034;3.730;2023-06-26T00:21:48;22.90;73.80
36716;DHT22;22699;51.034;3.730;2023-06-26T00:24:14;22.80;74.20
36716;DHT22;22699;51.034;3.730;2023-06-26T00:26:40;22.90;74.20
36716;DHT22;22699;51.034;3.730;2023-06-26T00:29:06;22.80;74.90
36716;DHT22;22699;51.034;3.730;2023-06-26T00:31:31;22.70;75.30
36716;DHT22;22699;51.034;3.730;2023-06-26T00:33:57;22.70;75.50
36716;DHT22;22699;51.034;3.730;2023-06-26T00:36:23;22.70;75.70
36716;DHT22;22699;51.034;3.730;2023-06-26T00:38:49;22.80;76.10
36716;DHT22;22699;51.034;3.730;2023-06-26T00:41:15;22.80;76.20
36716;DHT22;22699;51.034;3.730;2023-06-26T00:43:41;22.80;76.70
36716;DHT22;22699;51.034;3.730;2023-06-26T00:46:10;22.80;77.10
36716;DHT22;22699;51.034;3.730;2023-06-26T00:48:36;22.70;77.70
36716;DHT22;22699;51.034;3.730;2023-06-26T00:51:02;22.80;77.90
36716;DHT22;22699;51.034;3.730;2023-06-26T00:53:30;22.80;77.60
36716;DHT22;22699;51.034;3.730;2023-06-26T00:55:55;22.60;78.60
36716;DHT22;22699;51.034;3.730;2023-06-26T00:58:25;22.50;79.50
36716;DHT22;22699;51.034;3.730;2023-06-26T01:00:51;22.50;80.10
36716;DHT22;22699;51.034;3.730;2023-06-26T01:03:17;22.50;80.10
36716;DHT22;22699;51.034;3.730;2023-06-26T01:05:43;22.50;80.50
36716;DHT22;22699;51.034;3.730;2023-06-26T01:08:12;22.50;80.70
36716;DHT22;22699;51.034;3.730;2023-06-26T01:10:39;22.50;81.30
36716;DHT22;22699;51.034;3.730;2023-06-26T01:13:05;22.40;81.80
36716;DHT22;22699;51.034;3.730;2023-06-26T01:15:31;22.50;82.00
36716;DHT22;22699;51.034;3.730;2023-06-26T01:17:58;22.50;82.40
36716;DHT22;22699;51.034;3.730;2023-06-26T01:20:30;22.40;83.70
36716;DHT22;22699;51.034;3.730;2023-06-26T01:28:29;22.30;85.80
36716;DHT22;22699;51.034;3.730;2023-06-26T01:30:55;22.30;86.90
36716;DHT22;22699;51.034;3.730;2023-06-26T01:33:21;22.20;87.70
36716;DHT22;22699;51.034;3.730;2023-06-26T01:35:47;22.20;88.10
36716;DHT22;22699;51.034;3.730;2023-06-26T01:38:18;22.30;88.50
36716;DHT22;22699;51.034;3.730;2023-06-26T01:40:44;22.30;88.90
36716;DHT22;22699;51.034;3.730;2023-06-26T01:45:51;22.40;89.30
36716;DHT22;22699;51.034;3.730;2023-06-26T01:48:20;22.10;90.40
36716;DHT22;22699;51.034;3.730;2023-06-26T01:50:50;22.00;91.20
36716;DHT22;22699;51.034;3.730;2023-06-26T01:53:19;22.00;91.30
36716;DHT22;22699;51.034;3.730;2023-06-26T01:55:53;21.90;92.00
36716;DHT22;22699;51.034;3.730;2023-06-26T01:58:22;21.80;92.80
36716;DHT22;22699;51.034;3.730;2023-06-26T02:00:49;21.70;93.50
36716;DHT22;22699;51.034;3.730;2023-06-26T02:03:15;21.60;94.20
36716;DHT22;22699;51.034;3.730;2023-06-26T02:05:40;21.50;94.90
36716;DHT22;22699;51.034;3.730;2023-06-26T02:08:08;21.50;95.50
36716;DHT22;22699;51.034;3.730;2023-06-26T02:10:34;21.50;96.00
36716;DHT22;22699;51.034;3.730;2023-06-26T02:13:00;21.40;96.60
36716;DHT22;22699;51.034;3.730;2023-06-26T02:15:26;21.40;97.00
36716;DHT22;22699;51.034;3.730;2023-06-26T02:17:51;21.40;97.80
36716;DHT22;22699;51.034;3.730;2023-06-26T02:20:17;21.30;98.30
36716;DHT22;22699;51.034;3.730;2023-06-26T02:22:42;21.20;98.70
36716;DHT22;22699;51.034;3.730;2023-06-26T02:25:09;21.20;98.90
36716;DHT22;22699;51.034;3.730;2023-06-26T02:27:35;21.10;99.30
36716;DHT22;22699;51.034;3.730;2023-06-26T02:30:01;21.00;99.60
36716;DHT22;22699;51.034;3.730;2023-06-26T02:32:27;21.10;99.60
36716;DHT22;22699;51.034;3.730;2023-06-26T02:34:52;21.00;99.70
36716;DHT22;22699;51.034;3.730;2023-06-26T02:37:19;21.10;99.80
36716;DHT22;22699;51.034;3.730;2023-06-26T02:39:45;21.00;99.90
36716;DHT22;22699;51.034;3.730;2023-06-26T02:42:11;21.00;99.90
36716;DHT22;22699;51.034;3.730;2023-06-26T02:44:36;20.90;99.90
36716;DHT22;22699;51.034;3.730;2023-06-26T02:47:02;20.90;99.90
36716;DHT22;22699;51.034;3.730;2023-06-26T02:49:27;20.70;99.90
36716;DHT22;22699;51.034;3.730;2023-06-26T02:51:53;20.70;99.90
36716;DHT22;22699;51.034;3.730;2023-06-26T02:54:18;20.70;99.90
36716;DHT22;22699;51.034;3.730;2023-06-26T02:56:44;20.70;99.90
36716;DHT22;22699;51.034;3.730;2023-06-26T02:59:09;20.70;99.90
36716;DHT22;22699;51.034;3.730;2023-06-26T03:01:35;20.70;99.90
36716;DHT22;22699;51.034;3.730;2023-06-26T03:04:01;20.60;99.90
36716;DHT22;22699;51.034;3.730;2023-06-26T03:06:27;20.60;99.90
36716;DHT22;22699;51.034;3.730;2023-06-26T03:08:53;20.40;99.90
36716;DHT22;22699;51.034;3.730;2023-06-26T03:11:20;20.40;99.90
36716;DHT22;22699;51.034;3.730;2023-06-26T03:13:45;20.50;99.90
36716;DHT22;22699;51.034;3.730;2023-06-26T03:16:11;20.40;99.90
36716;DHT22;22699;51.034;3.730;2023-06-26T03:18:37;20.30;99.90
36716;DHT22;22699;51.034;3.730;2023-06-26T03:21:04;20.30;99.90
36716;DHT22;22699;51.034;3.730;2023-06-26T03:23:29;20.30;99.90
36716;DHT22;22699;51.034;3.730;2023-06-26T03:25:55;20.30;99.90
36716;DHT22;22699;51.034;3.730;2023-06-26T03:28:20;20.20;99.90
36716;DHT22;22699;51.034;3.730;2023-06-26T03:30:46;20.20;99.90
36716;DHT22;22699;51.034;3.730;2023-06-26T03:33:11;20.10;99.90
36716;DHT22;22699;51.034;3.730;2023-06-26T03:35:37;20.10;99.90
36716;DHT22;22699;51.034;3.730;2023-06-26T03:38:04;20.10;99.90
36716;DHT22;22699;51.034;3.730;2023-06-26T03:40:30;20.10;99.90
36716;DHT22;22699;51.034;3.730;2023-06-26T03:42:56;20.10;99.90
36716;DHT22;22699;51.034;3.730;2023-06-26T03:45:21;20.10;99.90
36716;DHT22;22699;51.034;3.730;2023-06-26T03:47:47;20.00;99.90
36716;DHT22;22699;51.034;3.730;2023-06-26T03:50:18;20.00;99.90
36716;DHT22;22699;51.034;3.730;2023-06-26T03:52:44;20.00;99.90
36716;DHT22;22699;51.034;3.730;2023-06-26T03:55:10;20.00;99.90
36716;DHT22;22699;51.034;3.730;2023-06-26T03:57:36;20.00;99.90
36716;DHT22;22699;51.034;3.730;2023-06-26T04:00:02;19.80;99.90
36716;DHT22;22699;51.034;3.730;2023-06-26T04:02:32;19.70;99.90
36716;DHT22;22699;51.034;3.730;2023-06-26T04:04:57;19.70;99.90
36716;DHT22;22699;51.034;3.730;2023-06-26T04:07:23;19.80;99.90
36716;DHT22;22699;51.034;3.730;2023-06-26T04:09:50;19.80;99.90
36716;DHT22;22699;51.034;3.730;2023-06-26T04:12:15;19.90;99.90
36716;DHT22;22699;51.034;3.730;2023-06-26T04:14:41;19.80;99.90
36716;DHT22;22699;51.034;3.730;2023-06-26T04:17:06;19.70;99.90
36716;DHT22;22699;51.034;3.730;2023-06-26T04:19:32;19.60;99.90
36716;DHT22;22699;51.034;3.730;2023-06-26T04:21:58;19.70;99.90
36716;DHT22;22699;51.034;3.730;2023-06-26T04:24:23;19.70;99.90
36716;DHT22;22699;51.034;3.730;2023-06-26T04:26:49;19.70;99.90
36716;DHT22;22699;51.034;3.730;2023-06-26T04:29:14;19.80;99.80
36716;DHT22;22699;51.034;3.730;2023-06-26T04:31:40;19.80;99.90
36716;DHT22;22699;51.034;3.730;2023-06-26T04:34:06;19.60;99.90
36716;DHT22;22699;51.034;3.730;2023-06-26T04:36:31;19.70;99.50
36716;DHT22;22699;51.034;3.730;2023-06-26T04:38:58;19.70;99.50
36716;DHT22;22699;51.034;3.730;2023-06-26T04:41:25;19.70;99.30
36716;DHT22;22699;51.034;3.730;2023-06-26T04:43:51;19.80;99.00
36716;DHT22;22699;51.034;3.730;2023-06-26T04:46:17;19.70;99.10
36716;DHT22;22699;51.034;3.730;2023-06-26T04:48:42;19.70;99.30
36716;DHT22;22699;51.034;3.730;2023-06-26T04:51:10;19.70;99.00
36716;DHT22;22699;51.034;3.730;2023-06-26T04:53:37;19.70;98.90
36716;DHT22;22699;51.034;3.730;2023-06-26T04:56:04;19.60;98.80
36716;DHT22;22699;51.034;3.730;2023-06-26T04:58:32;19.80;98.60
36716;DHT22;22699;51.034;3.730;2023-06-26T05:00:58;19.70;98.50
36716;DHT22;22699;51.034;3.730;2023-06-26T05:03:27;19.70;98.50
36716;DHT22;22699;51.034;3.730;2023-06-26T05:05:52;19.70;98.50
36716;DHT22;22699;51.034;3.730;2023-06-26T05:08:24;19.70;98.50
36716;DHT22;22699;51.034;3.730;2023-06-26T05:10:52;19.60;98.70
36716;DHT22;22699;51.034;3.730;2023-06-26T05:13:27;19.80;98.40
36716;DHT22;22699;51.034;3.730;2023-06-26T05:15:53;19.80;98.40
36716;DHT22;22699;51.034;3.730;2023-06-26T05:18:21;20.00;98.10
36716;DHT22;22699;51.034;3.730;2023-06-26T05:20:47;20.10;97.70
36716;DHT22;22699;51.034;3.730;2023-06-26T05:23:16;20.20;97.20
36716;DHT22;22699;51.034;3.730;2023-06-26T05:25:55;20.30;97.00
36716;DHT22;22699;51.034;3.730;2023-06-26T05:28:21;20.30;97.00
36716;DHT22;22699;51.034;3.730;2023-06-26T05:30:48;20.20;97.10
36716;DHT22;22699;51.034;3.730;2023-06-26T05:33:28;20.30;96.90
36716;DHT22;22699;51.034;3.730;2023-06-26T05:35:56;20.40;96.90
36716;DHT22;22699;51.034;3.730;2023-06-26T05:38:29;20.30;96.90
36716;DHT22;22699;51.034;3.730;2023-06-26T05:40:55;20.30;96.90
36716;DHT22;22699;51.034;3.730;2023-06-26T05:43:21;20.30;96.70
36716;DHT22;22699;51.034;3.730;2023-06-26T05:45:48;20.30;96.90
36716;DHT22;22699;51.034;3.730;2023-06-26T05:48:28;20.30;96.80
36716;DHT22;22699;51.034;3.730;2023-06-26T05:50:55;20.50;96.50
36716;DHT22;22699;51.034;3.730;2023-06-26T05:53:42;20.30;96.60
36716;DHT22;22699;51.034;3.730;2023-06-26T05:56:10;20.50;96.40
36716;DHT22;22699;51.034;3.730;2023-06-26T05:58:36;20.50;96.50
36716;DHT22;22699;51.034;3.730;2023-06-26T06:01:02;20.50;96.20
36716;DHT22;22699;51.034;3.730;2023-06-26T06:03:27;20.50;96.30
36716;DHT22;22699;51.034;3.730;2023-06-26T06:05:53;20.50;96.30
36716;DHT22;22699;51.034;3.730;2023-06-26T06:08:18;20.60;96.10
36716;DHT22;22699;51.034;3.730;2023-06-26T06:10:44;20.70;95.80
36716;DHT22;22699;51.034;3.730;2023-06-26T06:13:09;20.80;95.70
36716;DHT22;22699;51.034;3.730;2023-06-26T06:15:35;20.80;95.50
36716;DHT22;22699;51.034;3.730;2023-06-26T06:18:01;20.90;95.50
36716;DHT22;22699;51.034;3.730;2023-06-26T06:20:26;21.00;95.40
36716;DHT22;22699;51.034;3.730;2023-06-26T06:22:52;21.00;95.30
36716;DHT22;22699;51.034;3.730;2023-06-26T06:25:18;21.00;95.30
36716;DHT22;22699;51.034;3.730;2023-06-26T06:27:44;21.10;95.10
36716;DHT22;22699;51.034;3.730;2023-06-26T06:30:12;21.20;95.00
36716;DHT22;22699;51.034;3.730;2023-06-26T06:32:38;21.30;94.60
36716;DHT22;22699;51.034;3.730;2023-06-26T06:35:04;21.30;94.60
36716;DHT22;22699;51.034;3.730;2023-06-26T06:37:37;21.20;94.80
36716;DHT22;22699;51.034;3.730;2023-06-26T06:40:05;21.20;95.00
36716;DHT22;22699;51.034;3.730;2023-06-26T06:42:32;21.10;95.00
36716;DHT22;22699;51.034;3.730;2023-06-26T06:44:58;21.20;95.00
36716;DHT22;22699;51.034;3.730;2023-06-26T06:47:24;21.30;94.70
36716;DHT22;22699;51.034;3.730;2023-06-26T06:49:49;21.70;94.10
36716;DHT22;22699;51.034;3.730;2023-06-26T06:52:15;21.80;93.90
36716;DHT22;22699;51.034;3.730;2023-06-26T06:54:54;22.00;93.30
36716;DHT22;22699;51.034;3.730;2023-06-26T06:57:21;22.10;92.60
36716;DHT22;22699;51.034;3.730;2023-06-26T06:59:47;22.40;91.50
36716;DHT22;22699;51.034;3.730;2023-06-26T07:02:15;22.30;91.00
36716;DHT22;22699;51.034;3.730;2023-06-26T07:04:41;22.40;90.70
36716;DHT22;22699;51.034;3.730;2023-06-26T07:07:06;22.40;90.70
36716;DHT22;22699;51.034;3.730;2023-06-26T07:09:32;22.50;90.20
36716;DHT22;22699;51.034;3.730;2023-06-26T07:11:58;22.70;89.30
36716;DHT22;22699;51.034;3.730;2023-06-26T07:14:23;22.90;87.70
36716;DHT22;22699;51.034;3.730;2023-06-26T07:16:49;23.10;86.40
36716;DHT22;22699;51.034;3.730;2023-06-26T07:19:15;23.70;84.50
36716;DHT22;22699;51.034;3.730;2023-06-26T07:21:40;25.30;81.10
36716;DHT22;22699;51.034;3.730;2023-06-26T07:24:06;27.50;71.30
36716;DHT22;22699;51.034;3.730;2023-06-26T07:26:32;30.30;64.10
36716;DHT22;22699;51.034;3.730;2023-06-26T07:28:58;32.50;57.80
36716;DHT22;22699;51.034;3.730;2023-06-26T07:31:24;33.20;54.40
36716;DHT22;22699;51.034;3.730;2023-06-26T07:33:49;33.80;52.90
36716;DHT22;22699;51.034;3.730;2023-06-26T07:36:15;34.40;51.80
36716;DHT22;22699;51.034;3.730;2023-06-26T07:38:40;35.80;49.60
36716;DHT22;22699;51.034;3.730;2023-06-26T07:41:06;37.30;47.20
36716;DHT22;22699;51.034;3.730;2023-06-26T07:43:31;37.90;45.40
36716;DHT22;22699;51.034;3.730;2023-06-26T07:45:57;38.80;44.80
36716;DHT22;22699;51.034;3.730;2023-06-26T07:48:24;40.00;43.50
36716;DHT22;22699;51.034;3.730;2023-06-26T07:50:50;40.80;41.90
36716;DHT22;22699;51.034;3.730;2023-06-26T07:53:16;41.20;41.10
36716;DHT22;22699;51.034;3.730;2023-06-26T07:55:42;41.80;40.50
36716;DHT22;22699;51.034;3.730;2023-06-26T07:58:09;40.80;40.50
36716;DHT22;22699;51.034;3.730;2023-06-26T08:00:35;40.00;41.10
36716;DHT22;22699;51.034;3.730;2023-06-26T08:03:00;40.20;40.60
36716;DHT22;22699;51.034;3.730;2023-06-26T08:05:26;40.30;39.80
36716;DHT22;22699;51.034;3.730;2023-06-26T08:07:52;41.50;39.90
36716;DHT22;22699;51.034;3.730;2023-06-26T08:10:17;42.30;39.10
36716;DHT22;22699;51.034;3.730;2023-06-26T08:12:43;42.80;38.20
36716;DHT22;22699;51.034;3.730;2023-06-26T08:15:11;43.60;37.10
36716;DHT22;22699;51.034;3.730;2023-06-26T08:17:37;43.90;37.20
36716;DHT22;22699;51.034;3.730;2023-06-26T08:20:04;43.20;37.00
36716;DHT22;22699;51.034;3.730;2023-06-26T08:22:30;44.50;37.10
36716;DHT22;22699;51.034;3.730;2023-06-26T08:24:56;43.70;36.60
36716;DHT22;22699;51.034;3.730;2023-06-26T08:27:21;44.30;36.90
36716;DHT22;22699;51.034;3.730;2023-06-26T08:29:47;44.00;36.70
36716;DHT22;22699;51.034;3.730;2023-06-26T08:32:13;42.90;37.10
36716;DHT22;22699;51.034;3.730;2023-06-26T08:34:38;41.30;38.50
36716;DHT22;22699;51.034;3.730;2023-06-26T08:37:04;41.60;38.30
36716;DHT22;22699;51.034;3.730;2023-06-26T08:39:30;42.50;38.10
36716;DHT22;22699;51.034;3.730;2023-06-26T08:41:55;42.90;37.00
36716;DHT22;22699;51.034;3.730;2023-06-26T08:44:22;44.50;36.10
36716;DHT22;22699;51.034;3.730;2023-06-26T08:46:50;45.80;36.10
36716;DHT22;22699;51.034;3.730;2023-06-26T08:49:37;46.80;34.90
36716;DHT22;22699;51.034;3.730;2023-06-26T08:52:23;47.10;34.30
36716;DHT22;22699;51.034;3.730;2023-06-26T08:54:57;46.60;34.40
36716;DHT22;22699;51.034;3.730;2023-06-26T08:57:24;45.30;34.80
36716;DHT22;22699;51.034;3.730;2023-06-26T08:59:50;45.50;35.10
36716;DHT22;22699;51.034;3.730;2023-06-26T09:02:17;46.00;34.60
36716;DHT22;22699;51.034;3.730;2023-06-26T09:04:43;45.90;34.60
36716;DHT22;22699;51.034;3.730;2023-06-26T09:07:09;43.90;34.80
36716;DHT22;22699;51.034;3.730;2023-06-26T09:09:35;43.30;35.80
36716;DHT22;22699;51.034;3.730;2023-06-26T09:12:04;43.40;36.00
36716;DHT22;22699;51.034;3.730;2023-06-26T09:14:29;43.40;35.80
36716;DHT22;22699;51.034;3.730;2023-06-26T09:16:56;41.90;36.40
36716;DHT22;22699;51.034;3.730;2023-06-26T09:19:21;42.70;36.50
36716;DHT22;22699;51.034;3.730;2023-06-26T09:21:49;45.30;35.50
36716;DHT22;22699;51.034;3.730;2023-06-26T09:24:15;46.80;34.00
36716;DHT22;22699;51.034;3.730;2023-06-26T09:26:41;46.60;33.90
36716;DHT22;22699;51.034;3.730;2023-06-26T09:29:09;45.60;32.90
36716;DHT22;22699;51.034;3.730;2023-06-26T09:31:39;43.20;34.60
36716;DHT22;22699;51.034;3.730;2023-06-26T09:34:05;42.90;34.40
36716;DHT22;22699;51.034;3.730;2023-06-26T09:36:32;42.30;34.80
36716;DHT22;22699;51.034;3.730;2023-06-26T09:39:04;42.50;35.10
36716;DHT22;22699;51.034;3.730;2023-06-26T09:41:33;44.30;34.20
36716;DHT22;22699;51.034;3.730;2023-06-26T09:44:03;45.70;33.40
36716;DHT22;22699;51.034;3.730;2023-06-26T09:46:29;47.30;32.90
36716;DHT22;22699;51.034;3.730;2023-06-26T09:49:05;48.60;32.60
36716;DHT22;22699;51.034;3.730;2023-06-26T09:51:32;46.30;32.10
36716;DHT22;22699;51.034;3.730;2023-06-26T09:54:03;42.80;34.10
36716;DHT22;22699;51.034;3.730;2023-06-26T09:56:30;40.70;35.90
36716;DHT22;22699;51.034;3.730;2023-06-26T09:58:57;38.80;37.50
36716;DHT22;22699;51.034;3.730;2023-06-26T10:01:24;37.50;38.90
36716;DHT22;22699;51.034;3.730;2023-06-26T10:03:50;38.70;37.30
36716;DHT22;22699;51.034;3.730;2023-06-26T10:06:19;41.00;36.50
36716;DHT22;22699;51.034;3.730;2023-06-26T10:08:45;39.40;36.70
36716;DHT22;22699;51.034;3.730;2023-06-26T10:11:16;37.70;38.30
36716;DHT22;22699;51.034;3.730;2023-06-26T10:13:45;35.90;39.40
36716;DHT22;22699;51.034;3.730;2023-06-26T10:16:13;34.00;41.70
36716;DHT22;22699;51.034;3.730;2023-06-26T10:18:43;32.60;43.40
36716;DHT22;22699;51.034;3.730;2023-06-26T10:21:10;32.20;43.70
36716;DHT22;22699;51.034;3.730;2023-06-26T10:23:39;31.90;43.40
36716;DHT22;22699;51.034;3.730;2023-06-26T10:26:06;31.50;44.00
36716;DHT22;22699;51.034;3.730;2023-06-26T10:28:33;30.70;44.60
36716;DHT22;22699;51.034;3.730;2023-06-26T10:31:01;30.50;45.10
36716;DHT22;22699;51.034;3.730;2023-06-26T10:33:28;30.30;45.50
36716;DHT22;22699;51.034;3.730;2023-06-26T10:36:15;30.20;45.20
36716;DHT22;22699;51.034;3.730;2023-06-26T10:39:12;29.80;44.40
36716;DHT22;22699;51.034;3.730;2023-06-26T10:41:41;29.10;47.10
36716;DHT22;22699;51.034;3.730;2023-06-26T10:44:16;28.60;47.90
36716;DHT22;22699;51.034;3.730;2023-06-26T10:46:49;28.00;46.90
36716;DHT22;22699;51.034;3.730;2023-06-26T10:49:16;27.70;47.00
36716;DHT22;22699;51.034;3.730;2023-06-26T10:51:49;27.50;47.00
36716;DHT22;22699;51.034;3.730;2023-06-26T10:54:16;27.60;47.80
36716;DHT22;22699;51.034;3.730;2023-06-26T10:56:50;27.30;47.90
36716;DHT22;22699;51.034;3.730;2023-06-26T10:59:25;27.10;47.70
36716;DHT22;22699;51.034;3.730;2023-06-26T11:02:01;27.20;48.00
36716;DHT22;22699;51.034;3.730;2023-06-26T11:04:48;27.20;47.30
36716;DHT22;22699;51.034;3.730;2023-06-26T11:07:22;27.50;47.50
36716;DHT22;22699;51.034;3.730;2023-06-26T11:12:39;27.60;46.90
36716;DHT22;22699;51.034;3.730;2023-06-26T11:15:11;27.60;47.40
36716;DHT22;22699;51.034;3.730;2023-06-26T11:17:38;27.40;47.80
36716;DHT22;22699;51.034;3.730;2023-06-26T11:20:09;27.20;47.00
36716;DHT22;22699;51.034;3.730;2023-06-26T11:22:37;27.30;47.00
36716;DHT22;22699;51.034;3.730;2023-06-26T11:25:04;27.10;47.70
36716;DHT22;22699;51.034;3.730;2023-06-26T11:27:52;27.10;48.30
36716;DHT22;22699;51.034;3.730;2023-06-26T11:30:25;27.30;47.60
36716;DHT22;22699;51.034;3.730;2023-06-26T11:32:51;27.30;47.60
36716;DHT22;22699;51.034;3.730;2023-06-26T11:35:23;27.40;47.70
36716;DHT22;22699;51.034;3.730;2023-06-26T11:37:59;27.50;47.60
36716;DHT22;22699;51.034;3.730;2023-06-26T11:40:29;27.60;47.50
36716;DHT22;22699;51.034;3.730;2023-06-26T11:43:01;27.50;47.40
36716;DHT22;22699;51.034;3.730;2023-06-26T11:45:33;27.60;47.30
36716;DHT22;22699;51.034;3.730;2023-06-26T11:48:00;27.60;47.60
36716;DHT22;22699;51.034;3.730;2023-06-26T11:50:25;27.60;47.30
36716;DHT22;22699;51.034;3.730;2023-06-26T11:52:58;27.60;47.70
36716;DHT22;22699;51.034;3.730;2023-06-26T11:55:25;27.70;47.60
36716;DHT22;22699;51.034;3.730;2023-06-26T11:57:56;27.40;47.90
36716;DHT22;22699;51.034;3.730;2023-06-26T12:00:23;27.30;48.30
36716;DHT22;22699;51.034;3.730;2023-06-26T12:02:49;27.30;48.80
36716;DHT22;22699;51.034;3.730;2023-06-26T12:05:19;27.30;48.70
36716;DHT22;22699;51.034;3.730;2023-06-26T12:07:47;27.40;48.90
36716;DHT22;22699;51.034;3.730;2023-06-26T12:10:14;27.50;48.50
36716;DHT22;22699;51.034;3.730;2023-06-26T12:12:40;27.70;47.70
36716;DHT22;22699;51.034;3.730;2023-06-26T12:15:07;27.70;47.20
36716;DHT22;22699;51.034;3.730;2023-06-26T12:17:33;27.80;47.40
36716;DHT22;22699;51.034;3.730;2023-06-26T12:20:02;27.80;47.90
36716;DHT22;22699;51.034;3.730;2023-06-26T12:22:34;28.00;47.90
36716;DHT22;22699;51.034;3.730;2023-06-26T12:25:00;28.10;47.40
36716;DHT22;22699;51.034;3.730;2023-06-26T12:27:27;28.00;47.80
36716;DHT22;22699;51.034;3.730;2023-06-26T12:29:54;28.00;48.10
36716;DHT22;22699;51.034;3.730;2023-06-26T12:32:22;28.20;47.70
36716;DHT22;22699;51.034;3.730;2023-06-26T12:34:49;28.30;47.60
36716;DHT22;22699;51.034;3.730;2023-06-26T12:37:16;28.30;46.80
36716;DHT22;22699;51.034;3.730;2023-06-26T12:39:53;28.40;46.80
36716;DHT22;22699;51.034;3.730;2023-06-26T12:42:27;28.20;46.00
36716;DHT22;22699;51.034;3.730;2023-06-26T12:44:53;28.10;46.50
36716;DHT22;22699;51.034;3.730;2023-06-26T12:47:28;27.80;46.00
36716;DHT22;22699;51.034;3.730;2023-06-26T12:49:54;28.00;46.30
36716;DHT22;22699;51.034;3.730;2023-06-26T12:52:21;28.00;46.80
36716;DHT22;22699;51.034;3.730;2023-06-26T12:54:52;28.30;47.00
36716;DHT22;22699;51.034;3.730;2023-06-26T12:57:18;28.30;46.90
36716;DHT22;22699;51.034;3.730;2023-06-26T12:59:44;28.30;47.20
36716;DHT22;22699;51.034;3.730;2023-06-26T13:02:09;28.00;47.70
36716;DHT22;22699;51.034;3.730;2023-06-26T13:04:37;27.90;48.10
36716;DHT22;22699;51.034;3.730;2023-06-26T13:07:05;27.70;48.80
36716;DHT22;22699;51.034;3.730;2023-06-26T13:09:33;27.70;49.00
36716;DHT22;22699;51.034;3.730;2023-06-26T13:12:00;27.90;48.40
36716;DHT22;22699;51.034;3.730;2023-06-26T13:14:25;28.00;47.90
36716;DHT22;22699;51.034;3.730;2023-06-26T13:16:51;27.80;48.60
36716;DHT22;22699;51.034;3.730;2023-06-26T13:19:17;28.00;48.30
36716;DHT22;22699;51.034;3.730;2023-06-26T13:21:43;27.80;47.90
36716;DHT22;22699;51.034;3.730;2023-06-26T13:24:09;27.60;47.90
36716;DHT22;22699;51.034;3.730;2023-06-26T13:26:35;27.50;48.20
36716;DHT22;22699;51.034;3.730;2023-06-26T13:29:01;27.40;48.40
36716;DHT22;22699;51.034;3.730;2023-06-26T13:31:26;27.20;49.00
36716;DHT22;22699;51.034;3.730;2023-06-26T13:33:52;27.10;49.10
36716;DHT22;22699;51.034;3.730;2023-06-26T13:36:19;27.20;48.90
36716;DHT22;22699;51.034;3.730;2023-06-26T13:38:46;27.30;48.80
36716;DHT22;22699;51.034;3.730;2023-06-26T13:41:11;27.30;48.50
36716;DHT22;22699;51.034;3.730;2023-06-26T13:43:37;27.30;48.80
36716;DHT22;22699;51.034;3.730;2023-06-26T13:46:03;27.30;48.60
36716;DHT22;22699;51.034;3.730;2023-06-26T13:48:29;27.40;48.70
36716;DHT22;22699;51.034;3.730;2023-06-26T13:50:55;27.30;48.10
36716;DHT22;22699;51.034;3.730;2023-06-26T13:53:21;27.40;48.40
36716;DHT22;22699;51.034;3.730;2023-06-26T13:55:47;27.40;47.50
36716;DHT22;22699;51.034;3.730;2023-06-26T13:58:13;27.30;47.10
36716;DHT22;22699;51.034;3.730;2023-06-26T14:00:39;27.60;45.20
36716;DHT22;22699;51.034;3.730;2023-06-26T14:03:06;27.40;45.00
36716;DHT22;22699;51.034;3.730;2023-06-26T14:05:35;27.50;44.80
36716;DHT22;22699;51.034;3.730;2023-06-26T14:08:06;27.80;44.80
36716;DHT22;22699;51.034;3.730;2023-06-26T14:10:32;28.00;43.40
36716;DHT22;22699;51.034;3.730;2023-06-26T14:13:02;28.10;43.70
36716;DHT22;22699;51.034;3.730;2023-06-26T14:15:29;28.20;44.30
36716;DHT22;22699;51.034;3.730;2023-06-26T14:17:55;28.20;44.70
36716;DHT22;22699;51.034;3.730;2023-06-26T14:20:22;28.30;44.90
36716;DHT22;22699;51.034;3.730;2023-06-26T14:22:48;28.30;44.90
36716;DHT22;22699;51.034;3.730;2023-06-26T14:25:16;28.40;44.80
36716;DHT22;22699;51.034;3.730;2023-06-26T14:27:42;28.40;44.80
36716;DHT22;22699;51.034;3.730;2023-06-26T14:30:08;28.50;44.60
36716;DHT22;22699;51.034;3.730;2023-06-26T14:32:35;28.60;45.10
36716;DHT22;22699;51.034;3.730;2023-06-26T14:35:01;28.70;46.30
36716;DHT22;22699;51.034;3.730;2023-06-26T14:37:29;28.90;46.90
36716;DHT22;22699;51.034;3.730;2023-06-26T14:39:55;28.80;46.70
36716;DHT22;22699;51.034;3.730;2023-06-26T14:42:20;28.60;48.20
36716;DHT22;22699;51.034;3.730;2023-06-26T14:44:46;28.30;49.30
36716;DHT22;22699;51.034;3.730;2023-06-26T14:47:16;28.20;49.40
36716;DHT22;22699;51.034;3.730;2023-06-26T14:49:42;27.90;50.00
36716;DHT22;22699;51.034;3.730;2023-06-26T14:52:08;27.60;50.90
36716;DHT22;22699;51.034;3.730;2023-06-26T14:54:35;27.70;49.80
36716;DHT22;22699;51.034;3.730;2023-06-26T14:57:03;27.90;50.30
36716;DHT22;22699;51.034;3.730;2023-06-26T14:59:29;28.10;49.80
36716;DHT22;22699;51.034;3.730;2023-06-26T15:01:54;28.30;49.60
36716;DHT22;22699;51.034;3.730;2023-06-26T15:04:20;28.10;50.20
36716;DHT22;22699;51.034;3.730;2023-06-26T15:06:45;27.90;48.70
36716;DHT22;22699;51.034;3.730;2023-06-26T15:09:11;27.70;48.90
36716;DHT22;22699;51.034;3.730;2023-06-26T15:11:36;27.80;47.80
36716;DHT22;22699;51.034;3.730;2023-06-26T15:14:02;27.70;48.40
36716;DHT22;22699;51.034;3.730;2023-06-26T15:16:28;27.80;48.60
36716;DHT22;22699;51.034;3.730;2023-06-26T15:18:53;27.70;48.80
36716;DHT22;22699;51.034;3.730;2023-06-26T15:21:20;27.90;48.60
36716;DHT22;22699;51.034;3.730;2023-06-26T15:23:50;27.70;49.10
36716;DHT22;22699;51.034;3.730;2023-06-26T15:26:16;27.70;49.50
36716;DHT22;22699;51.034;3.730;2023-06-26T15:28:41;27.70;49.10
36716;DHT22;22699;51.034;3.730;2023-06-26T15:31:07;27.80;49.00
36716;DHT22;22699;51.034;3.730;2023-06-26T15:33:33;27.80;49.00
36716;DHT22;22699;51.034;3.730;2023-06-26T15:35:58;27.80;49.50
36716;DHT22;22699;51.034;3.730;2023-06-26T15:38:24;27.80;49.10
36716;DHT22;22699;51.034;3.730;2023-06-26T15:40:49;27.80;48.70
36716;DHT22;22699;51.034;3.730;2023-06-26T15:43:15;27.70;49.00